Time,TemperatureF,DewpointF,PressureIn,WindDirection,WindDirectionDegrees,WindSpeedMPH,WindSpeedGustMPH,Humidity,HourlyPrecipIn,Conditions,Clouds,dailyrainin,SoftwareType,DateUTC
2013-09-07 00:01:00,47.8,46.0,30.16,ENE,71,0.0,0.0,93,0.00,,,0.00,weatherlink.com 1.10,2013-09-07 04:01:00,
2013-09-07 00:16:00,47.5,46.0,30.15,ENE,71,0.0,0.0,93,0.00,,,0.00,weatherlink.com 1.10,2013-09-07 04:16:00,
2013-09-07 00:31:00,47.3,46.0,30.15,ENE,71,0.0,0.0,94,0.00,,,0.00,weatherlink.com 1.10,2013-09-07 04:31:00,
2013-09-07 00:46:00,47.1,46.0,30.15,ENE,71,0.0,0.0,94,0.00,,,0.00,weatherlink.com 1.10,2013-09-07 04:46:00,
2013-09-07 01:01:00,46.8,45.0,30.15,ENE,71,0.0,0.0,94,0.00,,,0.00,weatherlink.com 1.10,2013-09-07 05:01:00,
2013-09-07 01:16:00,46.4,45.0,30.15,ENE,71,0.0,0.0,94,0.00,,,0.00,weatherlink.com 1.10,2013-09-07 05:16:00,
2013-09-07 01:31:00,46.2,45.0,30.15,ENE,71,0.0,0.0,95,0.00,,,0.00,weatherlink.com 1.10,2013-09-07 05:31:00,
2013-09-07 01:46:00,46.0,45.0,30.14,ENE,71,0.0,0.0,95,0.00,,,0.00,weatherlink.com 1.10,2013-09-07 05:46:00,
2013-09-07 02:01:00,45.8,45.0,30.15,ENE,71,0.0,0.0,95,0.00,,,0.00,weatherlink.com 1.10,2013-09-07 06:01:00,
2013-09-07 02:16:00,45.6,44.0,30.14,ENE,71,0.0,0.0,95,0.00,,,0.00,weatherlink.com 1.10,2013-09-07 06:16:00,
2013-09-07 02:31:00,45.4,44.0,30.14,ENE,71,0.0,0.0,95,0.00,,,0.00,weatherlink.com 1.10,2013-09-07 06:31:00,
2013-09-07 02:46:00,45.3,44.0,30.14,ENE,71,0.0,0.0,95,0.00,,,0.00,weatherlink.com 1.10,2013-09-07 06:46:00,
2013-09-07 03:01:00,45.1,44.0,30.14,ENE,71,0.0,0.0,95,0.00,,,0.00,weatherlink.com 1.10,2013-09-07 07:01:00,
2013-09-07 03:16:00,44.8,44.0,30.14,ENE,71,0.0,0.0,95,0.00,,,0.00,weatherlink.com 1.10,2013-09-07 07:16:00,
2013-09-07 03:32:00,44.6,43.0,30.14,ENE,71,0.0,0.0,95,0.00,,,0.00,weatherlink.com 1.10,2013-09-07 07:32:00,
2013-09-07 03:47:00,44.4,43.0,30.14,ENE,71,0.0,0.0,95,0.00,,,0.00,weatherlink.com 1.10,2013-09-07 07:47:00,
2013-09-07 04:02:00,44.3,43.0,30.14,ENE,71,0.0,0.0,96,0.00,,,0.00,weatherlink.com 1.10,2013-09-07 08:02:00,
2013-09-07 04:17:00,44.2,43.0,30.14,ENE,71,0.0,0.0,96,0.00,,,0.00,weatherlink.com 1.10,2013-09-07 08:17:00,
2013-09-07 04:32:00,44.1,43.0,30.14,ENE,71,0.0,0.0,96,0.00,,,0.00,weatherlink.com 1.10,2013-09-07 08:32:00,
2013-09-07 04:47:00,44.0,43.0,30.14,ENE,71,0.0,0.0,96,0.00,,,0.00,weatherlink.com 1.10,2013-09-07 08:47:00,
2013-09-07 05:02:00,43.9,43.0,30.14,ENE,71,0.0,0.0,96,0.00,,,0.00,weatherlink.com 1.10,2013-09-07 09:02:00,
2013-09-07 05:17:00,43.8,43.0,30.14,ENE,71,0.0,0.0,96,0.00,,,0.00,weatherlink.com 1.10,2013-09-07 09:17:00,
2013-09-07 05:32:00,43.7,43.0,30.14,ENE,71,0.0,0.0,96,0.00,,,0.00,weatherlink.com 1.10,2013-09-07 09:32:00,
2013-09-07 05:47:00,43.7,43.0,30.14,ENE,71,0.0,0.0,96,0.00,,,0.00,weatherlink.com 1.10,2013-09-07 09:47:00,
2013-09-07 06:02:00,43.6,43.0,30.14,ENE,71,0.0,0.0,96,0.00,,,0.00,weatherlink.com 1.10,2013-09-07 10:02:00,
2013-09-07 06:17:00,44.0,43.0,30.14,ENE,71,0.0,0.0,96,0.00,,,0.00,weatherlink.com 1.10,2013-09-07 10:17:00,
2013-09-07 06:32:00,44.1,43.0,30.13,ENE,71,0.0,0.0,97,0.00,,,0.00,weatherlink.com 1.10,2013-09-07 10:32:00,
2013-09-07 06:47:00,44.0,43.0,30.14,ENE,71,0.0,0.0,97,0.00,,,0.00,weatherlink.com 1.10,2013-09-07 10:47:00,
2013-09-07 07:02:00,43.9,43.0,30.13,ENE,71,0.0,0.0,97,0.00,,,0.00,weatherlink.com 1.10,2013-09-07 11:02:00,
2013-09-07 07:17:00,43.8,43.0,30.13,ENE,71,0.0,0.0,97,0.00,,,0.00,weatherlink.com 1.10,2013-09-07 11:17:00,
2013-09-07 07:32:00,43.9,43.0,30.13,ENE,71,0.0,0.0,97,0.00,,,0.00,weatherlink.com 1.10,2013-09-07 11:32:00,
2013-09-07 07:47:00,44.4,44.0,30.13,ENE,71,0.0,0.0,97,0.00,,,0.00,weatherlink.com 1.10,2013-09-07 11:47:00,
2013-09-07 08:02:00,46.0,46.0,30.12,ENE,71,0.0,0.0,98,0.00,,,0.00,weatherlink.com 1.10,2013-09-07 12:02:00,
2013-09-07 08:17:00,48.4,48.0,30.12,ENE,71,0.0,0.0,98,0.00,,,0.00,weatherlink.com 1.10,2013-09-07 12:17:00,
2013-09-07 08:32:00,50.9,50.0,30.12,ENE,71,0.0,0.0,98,0.00,,,0.00,weatherlink.com 1.10,2013-09-07 12:32:00,
2013-09-07 08:47:00,53.0,53.0,30.12,ENE,71,0.0,1.0,98,0.00,,,0.00,weatherlink.com 1.10,2013-09-07 12:47:00,
2013-09-07 09:02:00,54.3,54.0,30.12,ENE,71,0.0,1.0,98,0.00,,,0.00,weatherlink.com 1.10,2013-09-07 13:02:00,
2013-09-07 09:17:00,57.3,57.0,30.12,ENE,71,0.0,2.0,97,0.00,,,0.00,weatherlink.com 1.10,2013-09-07 13:17:00,
2013-09-07 09:32:00,62.1,54.0,30.12,ENE,71,0.0,2.0,76,0.00,,,0.00,weatherlink.com 1.10,2013-09-07 13:32:00,
2013-09-07 09:47:00,64.9,54.0,30.12,NE,49,0.0,1.0,67,0.00,,,0.00,weatherlink.com 1.10,2013-09-07 13:47:00,
2013-09-07 10:02:00,66.6,55.0,30.11,NW,326,2.0,3.0,67,0.00,,,0.00,weatherlink.com 1.10,2013-09-07 14:02:00,
2013-09-07 10:17:00,68.2,55.0,30.12,SW,226,2.0,4.0,64,0.00,,,0.00,weatherlink.com 1.10,2013-09-07 14:17:00,
2013-09-07 10:33:00,69.0,56.0,30.12,West,266,1.0,7.0,64,0.00,,,0.00,weatherlink.com 1.10,2013-09-07 14:33:00,
2013-09-07 10:48:00,69.5,56.0,30.11,SW,227,4.0,6.0,62,0.00,,,0.00,weatherlink.com 1.10,2013-09-07 14:48:00,
2013-09-07 11:03:00,70.0,56.0,30.12,WNW,298,0.0,6.0,61,0.00,,,0.00,weatherlink.com 1.10,2013-09-07 15:03:00,
2013-09-07 11:18:00,71.2,56.0,30.11,WSW,257,0.0,5.0,59,0.00,,,0.00,weatherlink.com 1.10,2013-09-07 15:18:00,
2013-09-07 11:33:00,72.2,56.0,30.11,South,178,0.0,5.0,58,0.00,,,0.00,weatherlink.com 1.10,2013-09-07 15:33:00,
2013-09-07 11:48:00,73.2,56.0,30.10,SSW,199,0.0,6.0,56,0.00,,,0.00,weatherlink.com 1.10,2013-09-07 15:48:00,
2013-09-07 12:03:00,74.0,57.0,30.09,NW,313,0.0,6.0,55,0.00,,,0.00,weatherlink.com 1.10,2013-09-07 16:03:00,
2013-09-07 12:18:00,74.5,57.0,30.08,SW,231,3.0,4.0,55,0.00,,,0.00,weatherlink.com 1.10,2013-09-07 16:18:00,
2013-09-07 12:33:00,75.1,58.0,30.07,NNW,336,0.0,7.0,55,0.00,,,0.00,weatherlink.com 1.10,2013-09-07 16:33:00,
2013-09-07 12:48:00,75.7,57.0,30.06,West,267,0.0,6.0,52,0.00,,,0.00,weatherlink.com 1.10,2013-09-07 16:48:00,
2013-09-07 13:03:00,76.0,56.0,30.05,SW,221,5.0,9.0,50,0.00,,,0.00,weatherlink.com 1.10,2013-09-07 17:03:00,
2013-09-07 13:18:00,76.2,54.0,30.04,SW,217,4.0,8.0,46,0.00,,,0.00,weatherlink.com 1.10,2013-09-07 17:18:00,
2013-09-07 13:33:00,76.5,55.0,30.04,WNW,283,4.0,8.0,48,0.00,,,0.00,weatherlink.com 1.10,2013-09-07 17:33:00,
2013-09-07 13:48:00,77.5,55.0,30.03,NW,317,0.0,7.0,46,0.00,,,0.00,weatherlink.com 1.10,2013-09-07 17:48:00,
2013-09-07 14:03:00,77.5,54.0,30.02,NW,305,3.0,8.0,44,0.00,,,0.00,weatherlink.com 1.10,2013-09-07 18:03:00,
2013-09-07 14:18:00,77.4,52.0,30.01,NW,313,1.0,9.0,41,0.00,,,0.00,weatherlink.com 1.10,2013-09-07 18:18:00,
2013-09-07 14:33:00,77.9,52.0,30.01,WSW,246,3.0,7.0,41,0.00,,,0.00,weatherlink.com 1.10,2013-09-07 18:33:00,
2013-09-07 14:48:00,78.1,55.0,30.00,West,261,1.0,7.0,45,0.00,,,0.00,weatherlink.com 1.10,2013-09-07 18:48:00,
2013-09-07 15:03:00,79.0,56.0,30.00,NW,313,1.0,7.0,45,0.00,,,0.00,weatherlink.com 1.10,2013-09-07 19:03:00,
2013-09-07 15:19:00,79.1,53.0,29.99,NNW,329,6.0,8.0,40,0.00,,,0.00,weatherlink.com 1.10,2013-09-07 19:19:00,
2013-09-07 15:34:00,79.5,54.0,29.99,NNW,333,2.0,8.0,42,0.00,,,0.00,weatherlink.com 1.10,2013-09-07 19:34:00,
2013-09-07 15:49:00,78.4,53.0,29.98,West,269,2.0,7.0,42,0.00,,,0.00,weatherlink.com 1.10,2013-09-07 19:49:00,
2013-09-07 16:04:00,77.6,53.0,29.98,SW,229,2.0,7.0,42,0.00,,,0.00,weatherlink.com 1.10,2013-09-07 20:04:00,
2013-09-07 16:19:00,78.4,53.0,29.97,NW,304,3.0,6.0,41,0.00,,,0.00,weatherlink.com 1.10,2013-09-07 20:19:00,
2013-09-07 16:34:00,78.9,53.0,29.97,NW,308,3.0,6.0,40,0.00,,,0.00,weatherlink.com 1.10,2013-09-07 20:34:00,
2013-09-07 16:49:00,79.3,53.0,29.96,WNW,296,0.0,6.0,40,0.00,,,0.00,weatherlink.com 1.10,2013-09-07 20:49:00,
2013-09-07 17:04:00,79.0,55.0,29.96,NW,306,0.0,5.0,43,0.00,,,0.00,weatherlink.com 1.10,2013-09-07 21:04:00,
2013-09-07 17:19:00,78.5,53.0,29.96,NW,304,0.0,6.0,42,0.00,,,0.00,weatherlink.com 1.10,2013-09-07 21:19:00,
2013-09-07 17:34:00,77.4,55.0,29.96,NW,304,0.0,1.0,46,0.00,,,0.00,weatherlink.com 1.10,2013-09-07 21:34:00,
2013-09-07 17:49:00,76.3,58.0,29.96,NNE,28,0.0,0.0,53,0.00,,,0.00,weatherlink.com 1.10,2013-09-07 21:49:00,
2013-09-07 18:04:00,73.4,61.0,29.95,NNE,28,0.0,1.0,65,0.00,,,0.00,weatherlink.com 1.10,2013-09-07 22:04:00,
2013-09-07 18:19:00,71.8,61.0,29.95,East,99,0.0,1.0,69,0.00,,,0.00,weatherlink.com 1.10,2013-09-07 22:19:00,
2013-09-07 18:34:00,71.5,60.0,29.95,ESE,102,0.0,2.0,68,0.00,,,0.00,weatherlink.com 1.10,2013-09-07 22:34:00,
2013-09-07 18:49:00,71.4,62.0,29.95,ESE,102,0.0,0.0,71,0.00,,,0.00,weatherlink.com 1.10,2013-09-07 22:49:00,
2013-09-07 19:04:00,70.2,61.0,29.95,ESE,102,0.0,0.0,73,0.00,,,0.00,weatherlink.com 1.10,2013-09-07 23:04:00,
2013-09-07 19:19:00,68.3,60.0,29.95,ESE,102,0.0,1.0,75,0.00,,,0.00,weatherlink.com 1.10,2013-09-07 23:19:00,
2013-09-07 19:34:00,67.3,60.0,29.94,ESE,102,0.0,0.0,77,0.00,,,0.00,weatherlink.com 1.10,2013-09-07 23:34:00,
2013-09-07 19:49:00,65.4,60.0,29.94,ESE,102,0.0,1.0,82,0.00,,,0.00,weatherlink.com 1.10,2013-09-07 23:49:00,
2013-09-07 20:04:00,64.4,60.0,29.94,ESE,102,0.0,0.0,84,0.00,,,0.00,weatherlink.com 1.10,2013-09-08 00:04:00,
2013-09-07 20:19:00,63.7,59.0,29.95,ESE,102,0.0,0.0,85,0.00,,,0.00,weatherlink.com 1.10,2013-09-08 00:19:00,
2013-09-07 20:34:00,62.4,59.0,29.95,ESE,102,0.0,0.0,87,0.00,,,0.00,weatherlink.com 1.10,2013-09-08 00:34:00,
2013-09-07 20:49:00,61.8,59.0,29.95,ESE,102,0.0,0.0,89,0.00,,,0.00,weatherlink.com 1.10,2013-09-08 00:49:00,
2013-09-07 21:04:00,61.4,58.0,29.95,ESE,102,0.0,0.0,89,0.00,,,0.00,weatherlink.com 1.10,2013-09-08 01:04:00,
2013-09-07 21:19:00,61.1,58.0,29.95,ESE,102,0.0,0.0,90,0.00,,,0.00,weatherlink.com 1.10,2013-09-08 01:19:00,
2013-09-07 21:34:00,60.7,58.0,29.95,ESE,102,0.0,0.0,90,0.00,,,0.00,weatherlink.com 1.10,2013-09-08 01:34:00,
2013-09-07 21:49:00,60.4,58.0,29.95,ESE,102,0.0,0.0,91,0.00,,,0.00,weatherlink.com 1.10,2013-09-08 01:49:00,
2013-09-07 22:04:00,60.3,58.0,29.95,ESE,102,0.0,1.0,92,0.00,,,0.00,weatherlink.com 1.10,2013-09-08 02:04:00,
2013-09-07 22:19:00,60.5,59.0,29.95,ESE,102,0.0,1.0,93,0.00,,,0.00,weatherlink.com 1.10,2013-09-08 02:19:00,
2013-09-07 22:34:00,60.6,59.0,29.94,ESE,102,0.0,0.0,93,0.00,,,0.00,weatherlink.com 1.10,2013-09-08 02:34:00,
2013-09-07 22:49:00,60.6,59.0,29.94,ESE,102,0.0,0.0,93,0.00,,,0.00,weatherlink.com 1.10,2013-09-08 02:49:00,
2013-09-07 23:04:00,60.5,59.0,29.94,ESE,102,0.0,0.0,93,0.00,,,0.00,weatherlink.com 1.10,2013-09-08 03:04:00,
2013-09-07 23:19:00,60.6,59.0,29.94,ESE,102,0.0,0.0,94,0.00,,,0.00,weatherlink.com 1.10,2013-09-08 03:19:00,
2013-09-07 23:34:00,60.6,59.0,29.93,ESE,102,0.0,0.0,94,0.00,,,0.00,weatherlink.com 1.10,2013-09-08 03:34:00,
2013-09-07 23:49:00,60.8,59.0,29.93,ESE,102,0.0,0.0,94,0.00,,,0.00,weatherlink.com 1.10,2013-09-08 03:49:00,